Time;durP1;ratioP1;P1;durP2;ratioP2;P2;SDS_P1;SDS_P2;PMS_P1;PMS_P2;Temp;Humidity;BMP_temperature;BMP_pressure;BME280_temperature;BME280_humidity;BME280_pressure;Samples;Min_cycle;Max_cycle;Signal;HPM_P1;HPM_P2
2022/01/22 00:00:18;;;;;;;39.17;26.07;;;4.00;99.90;;;;;;5075161;28;20181;-68
2022/01/22 00:02:44;;;;;;;39.23;26.10;;;4.00;99.90;;;;;;5074168;28;20606;-67
2022/01/22 00:05:11;;;;;;;41.87;25.80;;;4.00;99.90;;;;;;5075198;28;20228;-67
2022/01/22 00:07:37;;;;;;;42.77;26.87;;;4.00;99.90;;;;;;5073827;28;20181;-67
2022/01/22 00:10:07;;;;;;;37.40;25.70;;;4.00;99.90;;;;;;5074867;28;20173;-68
2022/01/22 00:15:09;;;;;;;38.67;25.07;;;4.00;99.90;;;;;;5075013;28;20200;-68
2022/01/22 00:17:35;;;;;;;39.53;26.10;;;4.00;99.90;;;;;;5074756;28;20177;-68
2022/01/22 00:20:01;;;;;;;40.20;26.77;;;4.10;99.90;;;;;;5074969;28;20182;-68
2022/01/22 00:22:31;;;;;;;43.83;26.13;;;4.00;99.90;;;;;;5074713;28;20209;-68
2022/01/22 00:24:59;;;;;;;42.83;27.17;;;4.00;99.90;;;;;;5074834;28;20194;-67
2022/01/22 00:27:26;;;;;;;44.23;26.77;;;4.00;99.90;;;;;;5073118;28;20220;-67
2022/01/22 00:29:53;;;;;;;38.37;25.77;;;4.00;99.90;;;;;;5074546;28;20269;-67
2022/01/22 00:32:19;;;;;;;34.87;25.43;;;4.00;99.90;;;;;;5074836;28;20538;-68
2022/01/22 00:34:45;;;;;;;35.57;24.77;;;4.00;99.90;;;;;;5074304;28;20184;-68
2022/01/22 00:37:10;;;;;;;38.03;23.47;;;4.00;99.90;;;;;;5074517;28;20198;-68
2022/01/22 00:39:37;;;;;;;33.50;23.27;;;4.00;99.90;;;;;;5073069;28;20216;-68
2022/01/22 00:42:09;;;;;;;35.43;23.57;;;4.00;99.90;;;;;;5074256;28;20186;-68
2022/01/22 00:44:34;;;;;;;33.43;23.77;;;4.00;99.90;;;;;;5072991;28;20202;-68
2022/01/22 00:47:02;;;;;;;32.47;23.30;;;4.00;99.90;;;;;;5073132;28;20677;-68
2022/01/22 00:49:29;;;;;;;36.40;24.50;;;4.00;99.90;;;;;;5072897;28;20182;-68
2022/01/22 00:51:55;;;;;;;34.97;23.13;;;4.00;99.90;;;;;;5074138;28;20174;-68
2022/01/22 00:54:21;;;;;;;37.30;24.03;;;4.00;99.90;;;;;;5074200;28;20197;-68
2022/01/22 00:56:47;;;;;;;35.13;23.57;;;4.00;99.90;;;;;;5072533;28;20201;-67
2022/01/22 00:59:12;;;;;;;43.93;25.27;;;4.00;99.90;;;;;;5074454;28;20268;-68
2022/01/22 01:01:38;;;;;;;38.80;24.80;;;4.00;99.90;;;;;;5072528;28;20217;-68
2022/01/22 01:04:04;;;;;;;36.50;25.03;;;4.00;99.90;;;;;;5074075;28;20224;-67
2022/01/22 01:06:30;;;;;;;42.63;26.37;;;4.00;99.90;;;;;;5074243;28;20607;-68
2022/01/22 01:08:59;;;;;;;44.80;28.37;;;4.00;99.90;;;;;;5072579;28;20202;-68
2022/01/22 01:11:27;;;;;;;46.37;28.67;;;4.00;99.90;;;;;;5074049;28;20637;-68
2022/01/22 01:13:57;;;;;;;40.43;26.90;;;4.00;99.90;;;;;;5073978;28;20540;-68
2022/01/22 01:35:07;;;;;;;46.33;26.73;;;4.00;99.90;;;;;;5073369;28;20587;-67
2022/01/22 01:37:32;;;;;;;38.30;25.73;;;4.00;99.90;;;;;;5073380;28;20216;-68
2022/01/22 01:40:02;;;;;;;44.37;27.77;;;4.00;99.90;;;;;;5073350;28;20182;-71
2022/01/22 01:45:00;;;;;;;40.87;27.03;;;4.00;99.90;;;;;;5073122;28;20291;-67
2022/01/22 01:47:26;;;;;;;42.53;27.27;;;4.00;99.90;;;;;;5071514;28;20219;-67
2022/01/22 01:49:52;;;;;;;43.93;27.37;;;4.00;99.90;;;;;;5071987;28;20174;-68
2022/01/22 01:52:25;;;;;;;44.87;27.30;;;4.00;99.90;;;;;;5073214;28;20224;-68
2022/01/22 01:55:04;;;;;;;45.87;27.07;;;4.00;99.90;;;;;;5071999;28;20174;-68
2022/01/22 01:57:42;;;;;;;47.63;28.30;;;4.00;99.90;;;;;;5071966;28;20201;-68
2022/01/22 02:00:15;;;;;;;43.03;27.63;;;4.00;99.90;;;;;;5072069;28;20247;-67
2022/01/22 02:02:42;;;;;;;50.47;30.47;;;4.00;99.90;;;;;;5073485;28;20210;-68
2022/01/22 02:05:10;;;;;;;45.57;28.37;;;4.00;99.90;;;;;;5071777;28;20607;-68
2022/01/22 02:07:39;;;;;;;46.80;29.37;;;4.00;99.90;;;;;;5073175;28;20177;-68
2022/01/22 02:10:07;;;;;;;45.63;30.00;;;4.00;99.90;;;;;;5071732;28;20177;-68
2022/01/22 02:26:00;;;;;;;47.47;28.30;;;4.00;99.90;;;;;;5073174;28;20251;-68
2022/01/22 02:28:25;;;;;;;52.17;29.00;;;4.00;99.90;;;;;;5073223;28;20166;-68
2022/01/22 02:30:58;;;;;;;55.70;28.30;;;4.00;99.90;;;;;;5073212;28;20631;-68
2022/01/22 02:36:01;;;;;;;46.03;28.20;;;4.00;99.90;;;;;;5072788;28;20221;-68
2022/01/22 02:38:44;;;;;;;58.40;29.87;;;4.00;99.90;;;;;;5071567;28;20177;-67
2022/01/22 02:41:16;;;;;;;44.43;29.13;;;4.00;99.90;;;;;;5072777;28;20161;-68
2022/01/22 02:43:42;;;;;;;55.70;30.77;;;4.00;99.90;;;;;;5073001;28;20158;-67
2022/01/22 02:46:08;;;;;;;52.97;30.97;;;4.00;99.90;;;;;;5071478;28;20326;-68
2022/01/22 02:48:34;;;;;;;51.47;29.63;;;4.00;99.90;;;;;;5073215;28;20170;-68
2022/01/22 02:50:59;;;;;;;53.60;29.77;;;4.00;99.90;;;;;;5072725;28;20726;-68
2022/01/22 02:53:26;;;;;;;52.73;31.23;;;4.00;99.90;;;;;;5072807;28;20170;-67
2022/01/22 02:55:53;;;;;;;48.60;30.40;;;4.00;99.90;;;;;;5071591;28;20221;-67
2022/01/22 02:58:19;;;;;;;55.93;30.03;;;4.00;99.90;;;;;;5074142;28;20174;-68
2022/01/22 03:00:45;;;;;;;50.43;31.10;;;4.00;99.90;;;;;;5076372;28;20242;-68
2022/01/22 03:03:10;;;;;;;52.93;32.00;;;4.00;99.90;;;;;;5076312;28;20181;-68
2022/01/22 03:05:36;;;;;;;55.77;31.17;;;4.00;99.90;;;;;;5076455;28;20251;-67
2022/01/22 03:08:07;;;;;;;55.10;30.83;;;4.00;99.90;;;;;;5074891;28;20170;-68
2022/01/22 03:10:33;;;;;;;54.57;32.03;;;4.00;99.90;;;;;;5076299;28;20150;-67
2022/01/22 03:28:21;;;;;;;53.53;30.60;;;4.00;99.90;;;;;;5076354;28;20200;-67
2022/01/22 03:30:47;;;;;;;60.37;30.70;;;4.00;99.90;;;;;;5075251;28;20216;-67
2022/01/22 03:33:15;;;;;;;48.37;29.97;;;4.00;99.90;;;;;;5075980;28;20545;-68
2022/01/22 03:35:45;;;;;;;46.33;28.53;;;4.00;99.90;;;;;;5074440;28;20193;-68
2022/01/22 03:38:11;;;;;;;52.20;30.77;;;4.10;99.90;;;;;;5076509;28;20207;-68
2022/01/22 03:40:37;;;;;;;53.70;31.13;;;4.00;99.90;;;;;;5075648;28;20186;-68
2022/01/22 03:43:02;;;;;;;50.70;28.60;;;4.00;99.90;;;;;;5075598;28;20182;-68
2022/01/22 03:45:28;;;;;;;55.73;28.97;;;4.00;99.90;;;;;;5075297;28;20206;-67
2022/01/22 03:47:54;;;;;;;48.30;29.53;;;4.10;99.90;;;;;;5074035;28;20174;-68
2022/01/22 03:50:20;;;;;;;51.90;30.20;;;4.00;99.90;;;;;;5074129;28;20631;-68
2022/01/22 03:52:47;;;;;;;57.63;31.60;;;4.00;99.90;;;;;;5075486;28;20710;-68
2022/01/22 03:55:27;;;;;;;59.07;30.53;;;4.00;99.90;;;;;;5073849;28;20189;-68
2022/01/22 03:57:53;;;;;;;53.20;30.93;;;4.00;99.90;;;;;;5074017;28;20178;-68
2022/01/22 04:00:18;;;;;;;53.77;30.10;;;4.00;99.90;;;;;;5073790;28;20247;-68
2022/01/22 04:05:10;;;;;;;53.50;29.60;;;4.10;99.90;;;;;;5075181;28;20205;-68
2022/01/22 04:10:07;;;;;;;52.23;28.17;;;4.10;99.90;;;;;;5075776;28;20174;-67
2022/01/22 04:12:56;;;;;;;56.53;29.20;;;4.10;99.90;;;;;;5074904;28;20177;-67
2022/01/22 04:15:25;;;;;;;52.27;30.77;;;4.10;99.90;;;;;;5075704;28;20185;-67
2022/01/22 04:26:14;;;;;;;48.67;25.97;;;4.10;99.90;;;;;;5074497;28;20208;-67
2022/01/22 04:28:41;;;;;;;50.57;26.87;;;4.10;99.90;;;;;;5075023;28;20188;-67
2022/01/22 04:31:07;;;;;;;45.83;26.60;;;4.10;99.90;;;;;;5074343;28;20201;-67
2022/01/22 04:33:33;;;;;;;48.70;27.40;;;4.10;99.90;;;;;;5074412;28;20216;-67
2022/01/22 04:35:59;;;;;;;43.83;26.23;;;4.10;99.90;;;;;;5074480;28;20590;-67
2022/01/22 04:38:25;;;;;;;49.07;27.37;;;4.10;99.90;;;;;;5073130;28;20223;-67
2022/01/22 04:40:51;;;;;;;50.93;28.63;;;4.10;99.90;;;;;;5074324;28;20200;-67
2022/01/22 04:43:17;;;;;;;47.83;27.90;;;4.10;99.90;;;;;;5074607;28;20674;-67
2022/01/22 04:48:54;;;;;;;48.37;27.90;;;4.10;99.90;;;;;;5075520;28;20272;-67
2022/01/22 04:56:42;;;;;;;56.57;29.47;;;4.20;99.90;;;;;;5074321;28;20216;-67
2022/01/22 04:59:08;;;;;;;53.47;28.83;;;4.10;99.90;;;;;;5074163;28;20181;-67
2022/01/22 05:01:34;;;;;;;50.73;28.27;;;4.20;99.90;;;;;;5074226;28;20170;-66
2022/01/22 05:03:59;;;;;;;54.33;29.77;;;4.20;99.90;;;;;;5073795;28;20576;-67
2022/01/22 05:06:26;;;;;;;51.53;28.67;;;4.20;99.90;;;;;;5073739;28;20185;-67
2022/01/22 05:08:52;;;;;;;56.80;28.97;;;4.20;99.90;;;;;;5073364;28;20176;-67
2022/01/22 05:11:18;;;;;;;54.07;29.97;;;4.20;99.90;;;;;;5073727;28;20161;-67
2022/01/22 05:13:44;;;;;;;56.47;29.17;;;4.20;99.90;;;;;;5074046;28;20146;-67
2022/01/22 05:16:10;;;;;;;52.17;28.97;;;4.20;99.90;;;;;;5074017;28;20193;-67
2022/01/22 05:18:48;;;;;;;51.40;29.20;;;4.20;99.90;;;;;;5073674;28;20173;-67
2022/01/22 05:21:16;;;;;;;52.07;29.83;;;4.20;99.90;;;;;;5071476;28;20303;-67
2022/01/22 05:23:44;;;;;;;59.63;30.70;;;4.20;99.90;;;;;;5073985;28;20169;-67
2022/01/22 05:26:27;;;;;;;52.90;28.13;;;4.20;99.90;;;;;;5073264;28;20279;-67
2022/01/22 05:37:00;;;;;;;53.10;28.93;;;4.20;99.90;;;;;;5073364;28;20620;-67
2022/01/22 05:39:28;;;;;;;50.03;30.20;;;4.20;99.90;;;;;;5073608;28;20150;-67
2022/01/22 05:41:56;;;;;;;52.13;27.63;;;4.20;99.90;;;;;;5073330;28;20544;-67
2022/01/22 05:44:22;;;;;;;55.57;29.40;;;4.20;99.90;;;;;;5073230;28;20280;-67
2022/01/22 05:46:48;;;;;;;47.40;27.43;;;4.20;99.90;;;;;;5073220;28;20264;-68
2022/01/22 05:49:14;;;;;;;57.47;29.80;;;4.20;99.90;;;;;;5071945;28;20265;-67
2022/01/22 05:51:44;;;;;;;54.57;29.63;;;4.20;99.90;;;;;;5073221;28;20193;-67
2022/01/22 05:59:39;;;;;;;53.67;27.90;;;4.30;99.90;;;;;;5073671;28;20228;-67
2022/01/22 06:02:16;;;;;;;52.90;28.53;;;4.30;99.90;;;;;;5073411;28;20154;-67
2022/01/22 06:04:43;;;;;;;58.30;29.00;;;4.30;99.90;;;;;;5073122;28;20272;-67
2022/01/22 06:07:10;;;;;;;53.17;28.03;;;4.30;99.90;;;;;;5073014;28;20231;-68
2022/01/22 06:09:39;;;;;;;60.37;27.67;;;4.30;99.90;;;;;;5073372;28;20170;-67
2022/01/22 06:14:32;;;;;;;46.73;26.10;;;4.30;99.90;;;;;;5073370;28;20178;-67
2022/01/22 06:16:58;;;;;;;54.07;27.77;;;4.30;99.90;;;;;;5073171;28;20199;-67
2022/01/22 06:19:24;;;;;;;52.60;27.23;;;4.40;99.90;;;;;;5071761;28;20642;-67
2022/01/22 06:21:51;;;;;;;48.03;26.80;;;4.40;99.90;;;;;;5073670;28;20184;-67
2022/01/22 06:24:20;;;;;;;50.97;27.60;;;4.40;99.90;;;;;;5073431;28;20543;-67
2022/01/22 06:26:46;;;;;;;48.50;27.07;;;4.40;99.90;;;;;;5072826;28;20209;-67
2022/01/22 06:29:12;;;;;;;56.83;28.60;;;4.40;99.90;;;;;;5073046;28;20173;-67
2022/01/22 06:31:38;;;;;;;48.93;26.77;;;4.40;99.90;;;;;;5071962;28;20178;-67
2022/01/22 06:34:05;;;;;;;52.27;27.33;;;4.40;99.90;;;;;;5075474;28;20226;-67
2022/01/22 06:36:31;;;;;;;58.03;25.93;;;4.40;99.90;;;;;;5075408;28;20685;-67
2022/01/22 06:39:11;;;;;;;49.43;25.33;;;4.40;99.90;;;;;;5075492;28;20185;-67
2022/01/22 06:41:44;;;;;;;54.83;26.83;;;4.40;99.90;;;;;;5076888;28;20155;-67
2022/01/22 06:44:17;;;;;;;47.57;24.73;;;4.40;99.90;;;;;;5075231;28;20565;-67
2022/01/22 06:46:45;;;;;;;50.67;27.17;;;4.40;99.90;;;;;;5076455;28;20565;-67
2022/01/22 06:49:11;;;;;;;54.43;27.03;;;4.40;99.90;;;;;;5076666;28;20272;-67
2022/01/22 06:51:37;;;;;;;50.30;26.27;;;4.40;99.90;;;;;;5076399;28;20174;-67
2022/01/22 06:54:05;;;;;;;44.20;23.90;;;4.40;99.90;;;;;;5075069;28;20182;-67
2022/01/22 06:56:31;;;;;;;49.97;26.20;;;4.40;99.90;;;;;;5076238;28;20190;-67
2022/01/22 06:58:58;;;;;;;50.07;26.70;;;4.40;99.90;;;;;;5074997;28;20185;-67
2022/01/22 07:01:25;;;;;;;54.80;27.07;;;4.40;99.90;;;;;;5074958;28;20206;-67
2022/01/22 07:03:52;;;;;;;47.43;25.47;;;4.50;99.90;;;;;;5074816;28;20173;-67
2022/01/22 07:06:18;;;;;;;58.77;27.07;;;4.50;99.90;;;;;;5076432;28;20197;-67
2022/01/22 07:08:43;;;;;;;53.10;26.57;;;4.50;99.90;;;;;;5076555;28;20173;-67
2022/01/22 07:11:09;;;;;;;54.30;27.33;;;4.50;99.90;;;;;;5076254;28;20254;-67
2022/01/22 07:13:35;;;;;;;62.17;27.57;;;4.50;99.90;;;;;;5074754;28;20182;-67
2022/01/22 07:16:01;;;;;;;65.90;29.07;;;4.50;99.90;;;;;;5075906;28;20197;-67
2022/01/22 07:18:29;;;;;;;54.57;27.07;;;4.50;99.90;;;;;;5074625;28;20220;-67
2022/01/22 07:20:55;;;;;;;57.23;27.37;;;4.50;99.90;;;;;;5076139;28;20510;-67
2022/01/22 07:26:06;;;;;;;62.00;27.13;;;4.50;99.90;;;;;;5075694;28;20209;-67
2022/01/22 07:28:32;;;;;;;61.73;26.37;;;4.50;99.90;;;;;;5075982;28;20166;-67
2022/01/22 07:30:59;;;;;;;51.70;26.40;;;4.50;99.90;;;;;;5075682;28;20174;-67
2022/01/22 07:33:26;;;;;;;50.73;24.77;;;4.60;99.90;;;;;;5076021;28;20666;-67
2022/01/22 07:35:53;;;;;;;52.70;24.10;;;4.60;99.90;;;;;;5075563;28;20221;-67
2022/01/22 07:38:19;;;;;;;51.97;25.73;;;4.60;99.90;;;;;;5074332;28;20201;-67
2022/01/22 07:40:45;;;;;;;51.67;24.20;;;4.60;99.90;;;;;;5075542;28;20188;-67
2022/01/22 07:43:11;;;;;;;50.33;23.97;;;4.60;99.90;;;;;;5075178;28;20619;-67
2022/01/22 07:45:37;;;;;;;46.03;22.07;;;4.60;99.90;;;;;;5075196;28;20208;-67
2022/01/22 07:48:04;;;;;;;45.07;21.77;;;4.60;99.90;;;;;;5075407;28;20183;-67
2022/01/22 07:50:29;;;;;;;43.03;22.30;;;4.60;99.90;;;;;;5075369;28;20170;-66
2022/01/22 07:52:57;;;;;;;41.33;20.47;;;4.60;99.90;;;;;;5075612;28;20515;-67
2022/01/22 07:55:22;;;;;;;40.60;19.57;;;4.70;99.90;;;;;;5075158;28;20740;-67
2022/01/22 07:57:49;;;;;;;40.10;20.37;;;4.70;99.90;;;;;;5075225;28;20162;-67
2022/01/22 08:00:16;;;;;;;38.37;19.03;;;4.70;99.90;;;;;;5073929;28;20614;-67
2022/01/22 08:02:43;;;;;;;39.30;19.00;;;4.70;99.90;;;;;;5075411;28;20180;-67
2022/01/22 08:05:09;;;;;;;37.80;18.90;;;4.70;99.90;;;;;;5075276;28;20220;-67
2022/01/22 08:07:35;;;;;;;39.53;18.63;;;4.70;99.90;;;;;;5074861;28;20190;-67
2022/01/22 08:10:02;;;;;;;37.40;19.47;;;4.70;99.90;;;;;;5073881;28;20706;-67
2022/01/22 08:12:29;;;;;;;42.33;19.50;;;4.70;99.90;;;;;;5073582;28;20197;-68
2022/01/22 08:14:55;;;;;;;39.10;18.80;;;4.70;99.90;;;;;;5074800;28;20174;-67
2022/01/22 08:17:20;;;;;;;41.67;18.80;;;4.80;99.90;;;;;;5074690;28;20667;-67
2022/01/22 08:19:46;;;;;;;43.97;19.90;;;4.80;99.90;;;;;;5073432;28;20178;-67
2022/01/22 08:22:12;;;;;;;39.63;19.10;;;4.80;99.90;;;;;;5073447;28;20193;-67
2022/01/22 08:24:38;;;;;;;34.97;17.70;;;4.80;99.90;;;;;;5073820;28;20254;-65
2022/01/22 08:27:14;;;;;;;40.13;18.97;;;4.80;99.90;;;;;;5073927;28;20213;-66
2022/01/22 08:29:41;;;;;;;43.03;19.03;;;4.80;99.90;;;;;;5075125;28;20154;-66
2022/01/22 08:37:27;;;;;;;35.27;17.77;;;4.80;99.90;;;;;;5075783;28;20327;-65
2022/01/22 08:39:52;;;;;;;30.97;16.83;;;4.80;99.90;;;;;;5074782;28;20182;-67
2022/01/22 08:42:19;;;;;;;32.83;15.20;;;4.80;99.90;;;;;;5074755;28;20161;-67
2022/01/22 08:44:46;;;;;;;34.27;16.10;;;4.80;99.90;;;;;;5072910;28;20205;-67
2022/01/22 08:47:13;;;;;;;31.60;16.10;;;4.80;99.90;;;;;;5072901;28;20617;-67
2022/01/22 08:49:39;;;;;;;40.37;17.77;;;4.80;99.90;;;;;;5074265;28;20204;-67
2022/01/22 08:52:11;;;;;;;36.03;17.40;;;4.90;99.90;;;;;;5074419;28;20162;-67
2022/01/22 08:54:37;;;;;;;29.90;16.27;;;4.90;99.90;;;;;;5074224;28;20518;-67
2022/01/22 08:57:03;;;;;;;34.77;17.27;;;4.90;99.90;;;;;;5074213;28;20258;-66
2022/01/22 08:59:29;;;;;;;30.87;17.70;;;4.90;99.90;;;;;;5072747;28;20269;-66
2022/01/22 09:01:55;;;;;;;28.30;17.67;;;4.90;99.90;;;;;;5072608;28;20209;-66
2022/01/22 09:04:21;;;;;;;39.23;18.60;;;4.90;99.90;;;;;;5073818;28;20200;-65
2022/01/22 09:06:47;;;;;;;41.00;18.80;;;4.90;99.90;;;;;;5072511;28;20193;-65
2022/01/22 09:09:13;;;;;;;37.27;18.77;;;5.00;99.90;;;;;;5074069;28;20634;-65
2022/01/22 09:11:41;;;;;;;43.27;19.47;;;5.00;99.90;;;;;;5074046;28;20177;-66
2022/01/22 09:14:10;;;;;;;35.50;19.67;;;5.00;99.90;;;;;;5073986;28;20181;-66
2022/01/22 09:16:37;;;;;;;33.13;18.00;;;5.00;99.90;;;;;;5073657;28;20197;-66
2022/01/22 09:19:07;;;;;;;42.03;19.97;;;5.00;99.90;;;;;;5073680;28;20182;-66
2022/01/22 09:21:38;;;;;;;41.23;19.50;;;5.00;99.90;;;;;;5074095;28;20177;-64
2022/01/22 09:24:05;;;;;;;40.27;21.67;;;5.00;99.90;;;;;;5074010;28;20194;-64
2022/01/22 09:26:31;;;;;;;40.90;20.17;;;5.10;99.90;;;;;;5073387;28;20205;-64
2022/01/22 09:28:59;;;;;;;42.17;21.97;;;5.10;99.90;;;;;;5073514;28;20174;-64
2022/01/22 09:31:26;;;;;;;41.13;22.27;;;5.10;99.90;;;;;;5073464;28;20170;-64
2022/01/22 09:33:56;;;;;;;37.63;22.03;;;5.10;99.90;;;;;;5073702;28;20188;-64
2022/01/22 09:36:22;;;;;;;48.10;23.03;;;5.10;99.90;;;;;;5073463;28;20190;-64
2022/01/22 09:38:48;;;;;;;46.50;24.00;;;5.10;99.90;;;;;;5073349;28;20188;-64
2022/01/22 09:41:17;;;;;;;48.37;23.77;;;5.10;99.90;;;;;;5073276;28;20253;-64
2022/01/22 09:43:44;;;;;;;54.77;26.53;;;5.10;99.90;;;;;;5073211;28;20178;-64
2022/01/22 09:46:11;;;;;;;50.87;24.87;;;5.10;99.90;;;;;;5073353;28;20658;-64
2022/01/22 09:48:44;;;;;;;55.67;27.23;;;5.10;99.90;;;;;;5073457;28;20170;-64
2022/01/22 09:51:11;;;;;;;57.13;27.40;;;5.10;99.90;;;;;;5073114;28;20170;-64
2022/01/22 09:53:42;;;;;;;58.23;26.87;;;5.10;99.90;;;;;;5073174;28;20173;-64
2022/01/22 09:56:09;;;;;;;62.37;29.17;;;5.20;99.90;;;;;;5073325;28;20186;-64
2022/01/22 09:58:35;;;;;;;63.47;28.67;;;5.20;99.90;;;;;;5073468;28;20698;-64
2022/01/22 10:01:22;;;;;;;70.27;29.97;;;5.20;99.90;;;;;;5073410;28;20255;-69
2022/01/22 10:03:49;;;;;;;58.97;30.17;;;5.20;99.90;;;;;;5073039;28;20605;-64
2022/01/22 10:06:20;;;;;;;63.57;29.57;;;5.10;99.90;;;;;;5073421;28;20201;-64
2022/01/22 10:08:46;;;;;;;62.37;29.43;;;5.20;99.90;;;;;;5077330;28;20173;-64
2022/01/22 10:11:17;;;;;;;60.30;29.97;;;5.20;99.90;;;;;;5077263;28;20272;-64
2022/01/22 10:13:46;;;;;;;62.53;29.73;;;5.20;99.90;;;;;;5075838;28;20677;-64
2022/01/22 10:16:19;;;;;;;55.57;28.90;;;5.20;99.90;;;;;;5077373;28;20558;-64
2022/01/22 10:18:45;;;;;;;53.63;27.33;;;5.20;99.90;;;;;;5077049;28;20251;-64
2022/01/22 10:21:15;;;;;;;48.10;26.00;;;5.20;99.90;;;;;;5077054;28;20166;-64
2022/01/22 10:23:42;;;;;;;49.43;24.53;;;5.20;99.90;;;;;;5077047;28;20580;-64
2022/01/22 10:26:12;;;;;;;47.13;24.23;;;5.20;99.90;;;;;;5076801;28;20213;-64
2022/01/22 10:28:48;;;;;;;45.47;23.17;;;5.20;99.90;;;;;;5075742;28;20174;-65
2022/01/22 10:31:21;;;;;;;42.87;23.90;;;5.20;99.90;;;;;;5077050;28;20166;-64
2022/01/22 10:34:11;;;;;;;49.20;23.47;;;5.20;99.90;;;;;;5076865;28;20146;-64
2022/01/22 10:36:38;;;;;;;48.30;23.87;;;5.20;99.90;;;;;;5077317;28;20268;-64
2022/01/22 10:39:26;;;;;;;41.03;22.03;;;5.20;99.90;;;;;;5075414;28;20180;-65
2022/01/22 10:41:52;;;;;;;37.37;22.73;;;5.20;99.90;;;;;;5076937;28;20216;-64
2022/01/22 10:44:36;;;;;;;40.57;22.60;;;5.20;99.90;;;;;;5076886;28;20209;-64
2022/01/22 10:47:03;;;;;;;41.37;21.63;;;5.20;99.90;;;;;;5075813;28;20220;-64
2022/01/22 10:49:30;;;;;;;41.07;22.10;;;5.20;99.90;;;;;;5076983;28;20197;-64
2022/01/22 10:51:59;;;;;;;36.90;19.97;;;5.20;99.90;;;;;;5076652;28;20193;-64
2022/01/22 10:54:33;;;;;;;38.33;20.60;;;5.30;99.90;;;;;;5075474;28;20662;-64
2022/01/22 10:57:17;;;;;;;35.20;20.93;;;5.30;99.90;;;;;;5075420;28;20209;-64
2022/01/22 10:59:52;;;;;;;35.23;19.63;;;5.30;99.90;;;;;;5078981;28;20174;-64
2022/01/22 11:02:30;;;;;;;33.50;19.73;;;5.30;99.90;;;;;;5076615;28;20181;-64
2022/01/22 11:04:56;;;;;;;37.10;20.63;;;5.30;99.90;;;;;;5076447;28;20190;-64
2022/01/22 11:07:22;;;;;;;34.50;19.87;;;5.30;99.90;;;;;;5074890;28;20200;-64
2022/01/22 11:09:48;;;;;;;41.37;20.63;;;5.40;99.90;;;;;;5076314;28;20192;-65
2022/01/22 11:12:14;;;;;;;37.13;19.40;;;5.40;99.90;;;;;;5074898;28;20243;-64
2022/01/22 11:14:42;;;;;;;34.20;19.33;;;5.40;99.90;;;;;;5076126;28;20173;-65
2022/01/22 11:17:08;;;;;;;31.67;18.00;;;5.40;99.90;;;;;;5076065;28;20556;-64
2022/01/22 11:19:37;;;;;;;27.40;17.47;;;5.40;99.90;;;;;;5073209;28;20178;-64
2022/01/22 11:22:14;;;;;;;30.33;18.27;;;5.40;99.90;;;;;;5075943;28;20242;-64
2022/01/22 11:24:45;;;;;;;26.37;16.83;;;5.40;99.90;;;;;;5075821;28;20190;-64
2022/01/22 11:27:15;;;;;;;29.30;18.30;;;5.30;99.90;;;;;;5074477;28;20623;-64
2022/01/22 11:29:54;;;;;;;29.67;17.83;;;5.30;99.90;;;;;;5074534;28;20174;-64
2022/01/22 11:32:26;;;;;;;33.13;18.57;;;5.40;99.90;;;;;;5076068;28;20158;-64
2022/01/22 11:34:58;;;;;;;32.77;19.67;;;5.40;99.90;;;;;;5075867;28;20173;-64
2022/01/22 11:37:27;;;;;;;30.17;18.23;;;5.40;99.90;;;;;;5076198;28;20197;-64
2022/01/22 11:40:12;;;;;;;33.83;18.43;;;5.40;99.90;;;;;;5075951;28;20162;-64
2022/01/22 11:45:40;;;;;;;29.87;18.53;;;5.50;99.90;;;;;;5075441;28;20186;-64
2022/01/22 11:48:17;;;;;;;30.20;19.53;;;5.50;99.90;;;;;;5075394;28;20241;-64
2022/01/22 11:50:46;;;;;;;32.77;19.63;;;5.50;99.90;;;;;;5075621;28;20625;-64
2022/01/22 11:53:23;;;;;;;33.07;19.97;;;5.60;99.90;;;;;;5074614;28;20180;-64
2022/01/22 11:56:07;;;;;;;31.07;18.47;;;5.60;99.90;;;;;;5073967;28;20205;-64
2022/01/22 11:58:34;;;;;;;32.13;20.03;;;5.70;99.90;;;;;;5075437;28;20178;-64
2022/01/22 12:00:59;;;;;;;29.50;18.77;;;5.70;99.90;;;;;;5075345;28;20178;-64
2022/01/22 12:03:25;;;;;;;33.90;19.87;;;5.70;99.90;;;;;;5075173;28;20302;-64
2022/01/22 12:05:54;;;;;;;33.47;20.27;;;5.70;99.90;;;;;;5075103;28;20208;-64
2022/01/22 12:08:21;;;;;;;34.40;20.90;;;5.60;99.90;;;;;;5075126;28;20174;-64
2022/01/22 12:16:40;;;;;;;31.00;19.37;;;5.60;99.90;;;;;;5075498;28;20205;-64
2022/01/22 12:19:47;;;;;;;31.53;18.83;;;5.50;99.90;;;;;;5074960;28;20256;-64
2022/01/22 12:22:39;;;;;;;33.57;19.20;;;5.50;99.90;;;;;;5074837;28;20155;-64
2022/01/22 12:25:07;;;;;;;32.07;19.10;;;5.50;99.90;;;;;;5074466;28;20241;-64
2022/01/22 12:27:42;;;;;;;34.80;18.87;;;5.50;99.90;;;;;;5074528;28;20219;-64
2022/01/22 12:30:08;;;;;;;26.50;17.37;;;5.50;99.90;;;;;;5074332;28;20165;-64
2022/01/22 12:32:48;;;;;;;26.57;17.27;;;5.50;99.90;;;;;;5073418;28;20564;-64
2022/01/22 12:35:31;;;;;;;29.10;16.87;;;5.60;99.90;;;;;;5074847;28;20172;-64
2022/01/22 12:38:18;;;;;;;26.00;15.93;;;5.60;99.90;;;;;;5074824;28;20162;-64
2022/01/22 12:40:45;;;;;;;22.10;15.60;;;5.60;99.90;;;;;;5074795;28;20547;-64
2022/01/22 12:43:15;;;;;;;22.73;15.10;;;5.60;99.90;;;;;;5075252;28;20252;-64
2022/01/22 12:45:44;;;;;;;20.40;13.23;;;5.60;99.90;;;;;;5074150;28;20201;-65
2022/01/22 12:48:13;;;;;;;19.40;13.00;;;5.60;99.90;;;;;;5074314;28;20229;-65
2022/01/22 12:50:39;;;;;;;17.50;12.30;;;5.60;99.90;;;;;;5075466;28;20157;-66
2022/01/22 12:53:11;;;;;;;15.23;11.33;;;5.50;99.90;;;;;;5074732;28;20674;-64
2022/01/22 12:58:40;;;;;;;19.43;12.90;;;5.50;99.90;;;;;;5073041;28;20234;-64
2022/01/22 13:01:09;;;;;;;19.97;12.67;;;5.50;99.90;;;;;;5074372;28;20572;-69
2022/01/22 13:03:37;;;;;;;18.53;13.17;;;5.50;99.90;;;;;;5072782;28;20177;-68
2022/01/22 13:06:04;;;;;;;17.77;12.17;;;5.50;99.90;;;;;;5073839;28;20288;-69
2022/01/22 13:08:30;;;;;;;16.57;12.07;;;5.50;99.90;;;;;;5073981;28;20177;-69
2022/01/22 13:11:00;;;;;;;18.13;10.77;;;5.60;99.90;;;;;;5074764;28;20521;-73
2022/01/22 13:13:27;;;;;;;12.77;10.10;;;5.60;99.90;;;;;;5073027;28;20551;-69
2022/01/22 13:16:07;;;;;;;13.03;9.60;;;5.60;99.90;;;;;;5072627;28;20197;-66
2022/01/22 13:19:00;;;;;;;10.30;8.77;;;5.60;99.90;;;;;;5074048;28;20241;-66
2022/01/22 13:21:35;;;;;;;11.10;8.77;;;5.60;99.90;;;;;;5071674;28;20190;-66
2022/01/22 13:24:10;;;;;;;11.00;8.37;;;5.60;99.90;;;;;;5074098;28;20165;-65
2022/01/22 13:26:58;;;;;;;9.70;7.20;;;5.60;99.90;;;;;;5072092;28;20227;-65
2022/01/22 13:29:43;;;;;;;8.67;7.80;;;5.60;99.90;;;;;;5073585;28;20154;-66
2022/01/22 13:35:16;;;;;;;9.17;7.27;;;5.60;99.90;;;;;;5073893;28;20618;-63
2022/01/22 13:45:04;;;;;;;8.33;7.30;;;5.50;99.90;;;;;;5073768;28;20158;-64
2022/01/22 13:49:27;;;;;;;10.20;8.40;;;5.50;99.90;;;;;;5073862;28;20300;-64
2022/01/22 13:52:01;;;;;;;11.20;7.83;;;5.50;99.90;;;;;;5073593;28;20161;-64
2022/01/22 13:54:33;;;;;;;10.97;8.47;;;5.50;99.90;;;;;;5073648;28;20185;-64
2022/01/22 13:57:04;;;;;;;10.83;8.87;;;5.50;99.90;;;;;;5073378;28;20264;-64
2022/01/22 13:59:35;;;;;;;12.90;8.57;;;5.50;99.90;;;;;;5073938;28;20172;-64
2022/01/22 14:02:16;;;;;;;11.70;8.50;;;5.50;99.90;;;;;;5073607;28;20150;-63
2022/01/22 14:04:49;;;;;;;10.27;8.47;;;5.50;99.90;;;;;;5073719;28;20282;-63
2022/01/22 14:07:22;;;;;;;14.90;8.93;;;5.50;99.90;;;;;;5073147;28;20193;-64
2022/01/22 14:10:16;;;;;;;12.63;9.07;;;5.50;99.90;;;;;;5072748;28;20591;-64
2022/01/22 14:12:46;;;;;;;12.03;9.40;;;5.40;99.90;;;;;;5072859;28;20193;-64
2022/01/22 14:15:26;;;;;;;13.27;9.50;;;5.40;99.90;;;;;;5071777;28;20201;-64
2022/01/22 14:20:34;;;;;;;12.83;9.63;;;5.40;99.90;;;;;;5073322;28;20226;-64
2022/01/22 14:23:07;;;;;;;12.17;9.97;;;5.50;99.90;;;;;;5073398;28;20165;-63
2022/01/22 14:25:36;;;;;;;14.60;9.77;;;5.50;99.90;;;;;;5071505;28;20237;-63
2022/01/22 14:28:08;;;;;;;15.37;10.60;;;5.50;99.90;;;;;;5072846;28;20186;-64
2022/01/22 14:30:35;;;;;;;13.93;10.70;;;5.50;99.90;;;;;;5073128;28;20185;-64
2022/01/22 14:33:01;;;;;;;12.67;10.30;;;5.50;99.90;;;;;;5072958;28;20174;-64
2022/01/22 14:35:27;;;;;;;13.90;10.43;;;5.50;99.90;;;;;;5071868;28;20659;-64
2022/01/22 14:37:56;;;;;;;13.57;11.33;;;5.50;99.90;;;;;;5072963;28;20576;-63
2022/01/22 14:45:59;;;;;;;16.60;13.00;;;5.50;99.90;;;;;;5072747;28;20212;-64
2022/01/22 14:48:26;;;;;;;11.90;10.57;;;5.40;99.90;;;;;;5072893;28;20639;-64
2022/01/22 14:50:53;;;;;;;17.03;11.57;;;5.40;99.90;;;;;;5072813;28;20549;-63
2022/01/22 14:53:19;;;;;;;13.60;10.93;;;5.40;99.90;;;;;;5075244;28;20629;-63
2022/01/22 14:55:59;;;;;;;14.47;10.10;;;5.40;99.90;;;;;;5077157;28;20197;-64
2022/01/22 14:58:25;;;;;;;13.27;9.97;;;5.40;99.90;;;;;;5077787;28;20189;-66
2022/01/22 15:00:51;;;;;;;14.93;9.60;;;5.40;99.90;;;;;;5075003;28;20255;-67